Portada
METAR-TAF:

METAR-TAF

Aeroports :

Macas, Equador

latitud: 02-17-57-S, longitud: 078-07-15-W, altitud: 1052 m

Observació

L'informe es va fer fa 42 minuts, a les 13:00 UTC
Vent 3 kt del Nord-Est
Temperatura 19°C
Humitat 100%
Pressió 1020 hPa
Visibilitat: 3000 m
Cel ennuvolat a una alçada de 1600 ft
Cel cobert a una alçada de 8000 ft
boira en bancs

METAR: SEMC 211300Z 04003KT 8000 3000S BCFG BKN016 OVC080 19/19 Q1020 RMK A3012

Hora: 08:42 (13:42 UTC)


TAF: manca

Observacions i pronòstics meteorològics de més de 4000 aeroports (METAR i TAF).

Les estacions disponibles són els punts grocs i vermells al mapa.

Posi el ratolí al punt desitjat per veure el nom de l'estació.

Feu clic per veure les observacions i els pronòstics meteorològics.

Per canviar el mapa: feu clic els botons verds amb una creu de color negre per apropar; al botó verd amb un guió per allunyar la imatge; o en les fletxes verdes per a mapes adjacents.


METAR-TAF: